Time;durP1;ratioP1;P1;durP2;ratioP2;P2;SDS_P1;SDS_P2;PMS_P1;PMS_P2;Temp;Humidity;BMP_temperature;BMP_pressure;BME280_temperature;BME280_humidity;BME280_pressure;Samples;Min_cycle;Max_cycle;Signal;HPM_P1;HPM_P2
2023/05/18 00:01:14;;;;;;;2.10;1.30;;;17.90;61.40;;;;;;5013191;28;20133;-30
2023/05/18 00:03:40;;;;;;;2.35;1.40;;;18.20;73.20;;;;;;5012940;28;20076;-30
2023/05/18 00:06:08;;;;;;;3.22;1.50;;;;;;;;;;5012791;28;20053;-30
2023/05/18 00:08:35;;;;;;;2.67;1.20;;;;;;;;;;5012818;28;20132;-31
2023/05/18 00:11:02;;;;;;;3.00;1.40;;;17.90;72.70;;;;;;5013093;28;20140;-30
2023/05/18 00:13:30;;;;;;;2.35;1.73;;;18.40;53.30;;;;;;5012212;28;20069;-31
2023/05/18 00:15:58;;;;;;;2.75;1.40;;;;;;;;;;5012627;28;20053;-31
2023/05/18 00:18:25;;;;;;;3.35;1.48;;;;;;;;;;5012948;28;20050;-30
2023/05/18 00:20:57;;;;;;;2.10;1.20;;;18.80;58.00;;;;;;5012648;28;20050;-30
2023/05/18 00:23:28;;;;;;;2.80;1.60;;;18.90;56.80;;;;;;5012183;28;20057;-32
2023/05/18 00:25:56;;;;;;;2.80;1.33;;;18.60;73.00;;;;;;5012881;28;20081;-32
2023/05/18 00:28:22;;;;;;;4.50;1.42;;;18.30;72.80;;;;;;5012474;28;20311;-32
2023/05/18 00:30:50;;;;;;;2.50;1.23;;;18.30;53.40;;;;;;5012507;28;20085;-32
2023/05/18 00:33:17;;;;;;;2.28;1.35;;;18.50;73.40;;;;;;5012371;28;20487;-32
2023/05/18 00:35:44;;;;;;;2.85;1.30;;;18.40;72.90;;;;;;5012359;28;20133;-33
2023/05/18 00:38:10;;;;;;;2.78;1.20;;;18.10;68.40;;;;;;5011599;28;20569;-32
2023/05/18 00:40:38;;;;;;;2.42;1.10;;;;;;;;;;5012378;28;20514;-30
2023/05/18 00:43:05;;;;;;;3.08;1.60;;;;;;;;;;5012165;28;20463;-31
2023/05/18 00:45:31;;;;;;;2.15;1.30;;;18.90;73.30;;;;;;5012515;28;20479;-31
2023/05/18 00:48:00;;;;;;;3.45;1.40;;;18.30;53.40;;;;;;5011999;28;20137;-32
2023/05/18 00:50:27;;;;;;;3.17;1.20;;;;;;;;;;5012072;28;20050;-31
2023/05/18 00:52:53;;;;;;;2.45;1.30;;;18.00;73.10;;;;;;5012074;28;20060;-30
2023/05/18 00:55:21;;;;;;;2.45;1.42;;;;;;;;;;5012161;28;20077;-30
2023/05/18 00:57:48;;;;;;;2.83;1.40;;;;;;;;;;5011887;28;20055;-31
2023/05/18 01:00:16;;;;;;;2.67;1.27;;;;;;;;;;5012212;28;20060;-30
2023/05/18 01:02:44;;;;;;;3.20;1.48;;;18.30;72.90;;;;;;5011637;28;20085;-30
2023/05/18 01:05:12;;;;;;;1.70;1.13;;;18.60;53.70;;;;;;5012198;28;20057;-31
2023/05/18 01:07:41;;;;;;;1.75;1.20;;;17.80;53.20;;;;;;5011917;28;20046;-31
2023/05/18 01:10:08;;;;;;;1.55;1.10;;;17.90;70.50;;;;;;5011768;28;20050;-30
2023/05/18 01:12:37;;;;;;;2.42;1.20;;;18.20;53.50;;;;;;5012016;28;20133;-30
2023/05/18 01:15:07;;;;;;;2.45;1.30;;;17.90;53.30;;;;;;5011867;28;20132;-30
2023/05/18 01:17:38;;;;;;;1.45;1.10;;;17.70;72.70;;;;;;5011903;28;20045;-30
2023/05/18 01:20:17;;;;;;;2.42;1.35;;;18.20;53.50;;;;;;5012043;28;20109;-32
2023/05/18 01:22:51;;;;;;;2.42;1.30;;;18.80;64.40;;;;;;5011482;28;20116;-31
2023/05/18 01:25:31;;;;;;;1.67;1.10;;;18.10;53.50;;;;;;5011763;28;20145;-30
2023/05/18 01:28:04;;;;;;;1.80;1.10;;;18.10;53.50;;;;;;5011899;28;20042;-30
2023/05/18 01:30:31;;;;;;;2.78;1.30;;;18.00;57.90;;;;;;5011961;28;20056;-30
2023/05/18 01:32:58;;;;;;;2.28;1.77;;;18.20;58.10;;;;;;5011812;28;20058;-30
2023/05/18 01:35:25;;;;;;;2.38;1.27;;;18.00;73.10;;;;;;5011756;28;20125;-31
2023/05/18 01:37:51;;;;;;;4.38;1.48;;;17.60;73.20;;;;;;5011203;28;20124;-30
2023/05/18 01:40:18;;;;;;;1.65;1.17;;;19.30;62.00;;;;;;5011557;28;20118;-30
2023/05/18 01:42:47;;;;;;;2.47;1.30;;;17.30;72.60;;;;;;5011438;28;20410;-30
2023/05/18 01:45:18;;;;;;;2.45;1.15;;;18.10;53.60;;;;;;5011819;28;20068;-30
2023/05/18 01:47:45;;;;;;;2.13;1.42;;;18.80;57.60;;;;;;5011395;28;20050;-31
2023/05/18 01:50:13;;;;;;;2.50;1.30;;;18.60;73.60;;;;;;5011387;28;20045;-30
2023/05/18 01:52:45;;;;;;;1.65;1.10;;;17.70;73.20;;;;;;5011096;28;20120;-30
2023/05/18 01:55:12;;;;;;;1.60;1.10;;;18.40;74.10;;;;;;5011821;28;20053;-30
2023/05/18 01:57:39;;;;;;;2.55;1.20;;;18.00;53.60;;;;;;5011626;28;20053;-32
2023/05/18 02:00:08;;;;;;;2.55;1.40;;;18.30;73.20;;;;;;5011433;28;20513;-30
2023/05/18 02:02:36;;;;;;;2.08;1.38;;;18.50;64.40;;;;;;5011331;28;20517;-31
2023/05/18 02:05:04;;;;;;;2.10;1.10;;;18.30;71.20;;;;;;5011572;28;20129;-30
2023/05/18 02:07:31;;;;;;;2.15;1.33;;;;;;;;;;5011304;28;20042;-32
2023/05/18 02:09:58;;;;;;;2.45;1.20;;;;;;;;;;5011576;28;20136;-30
2023/05/18 02:12:25;;;;;;;2.00;1.13;;;;;;;;;;5011255;28;20049;-32
2023/05/18 02:14:54;;;;;;;2.30;1.30;;;18.20;73.20;;;;;;5011443;28;20046;-30
2023/05/18 02:17:21;;;;;;;2.42;1.42;;;18.10;73.50;;;;;;5011315;28;20061;-30
2023/05/18 02:19:49;;;;;;;2.75;1.30;;;17.70;57.80;;;;;;5014460;28;20065;-31
2023/05/18 02:22:16;;;;;;;1.50;1.10;;;18.30;73.20;;;;;;5014543;28;20050;-30
2023/05/18 02:24:45;;;;;;;1.98;1.08;;;18.20;64.50;;;;;;5015038;28;20050;-30
2023/05/18 02:27:13;;;;;;;2.50;1.25;;;;;;;;;;5014645;28;20042;-32
2023/05/18 02:29:40;;;;;;;2.15;1.10;;;18.10;73.20;;;;;;5014941;28;20049;-31
2023/05/18 02:32:08;;;;;;;2.50;1.40;;;17.50;72.90;;;;;;5014693;28;20049;-30
2023/05/18 02:34:37;;;;;;;1.80;1.30;;;18.10;73.50;;;;;;5014637;28;20129;-30
2023/05/18 02:37:05;;;;;;;4.35;1.30;;;18.10;73.50;;;;;;5013429;28;20057;-30
2023/05/18 02:39:32;;;;;;;2.63;1.20;;;;;;;;;;5014617;28;20126;-30
2023/05/18 02:41:59;;;;;;;1.75;1.20;;;18.20;73.60;;;;;;5014531;28;20506;-31
2023/05/18 02:44:26;;;;;;;1.85;1.10;;;18.00;73.40;;;;;;5014193;28;20128;-30
2023/05/18 02:46:52;;;;;;;2.40;1.25;;;18.20;71.70;;;;;;5014488;28;20133;-30
2023/05/18 02:49:19;;;;;;;2.42;1.30;;;18.10;73.60;;;;;;5014285;28;20128;-30
2023/05/18 02:51:46;;;;;;;1.83;1.20;;;;;;;;;;5014555;28;20080;-32
2023/05/18 02:54:14;;;;;;;1.67;1.13;;;17.70;73.00;;;;;;5014120;28;20101;-31
2023/05/18 02:56:41;;;;;;;1.88;1.15;;;18.00;73.60;;;;;;5014198;28;20061;-30
2023/05/18 02:59:08;;;;;;;3.80;1.20;;;18.60;73.70;;;;;;5014166;28;20546;-30
2023/05/18 03:01:36;;;;;;;1.70;1.17;;;;;;;;;;5014058;28;20132;-32
2023/05/18 03:04:03;;;;;;;1.90;1.15;;;;;;;;;;5013657;28;20061;-31
2023/05/18 03:06:30;;;;;;;2.55;1.20;;;18.00;73.30;;;;;;5014215;28;20124;-30
2023/05/18 03:08:57;;;;;;;3.67;1.30;;;18.30;58.20;;;;;;5014089;28;20045;-30
2023/05/18 03:11:26;;;;;;;1.65;1.20;;;17.70;73.50;;;;;;5013952;28;20050;-30
2023/05/18 03:13:53;;;;;;;2.00;1.30;;;;;;;;;;5013694;28;20073;-30
2023/05/18 03:16:20;;;;;;;3.03;1.50;;;17.70;73.10;;;;;;5013822;28;20135;-30
2023/05/18 03:18:47;;;;;;;1.42;1.15;;;19.00;73.80;;;;;;5013623;28;20049;-30
2023/05/18 03:21:14;;;;;;;2.50;1.20;;;18.10;60.00;;;;;;5014031;28;20129;-30
2023/05/18 03:23:40;;;;;;;2.28;1.13;;;17.50;73.10;;;;;;5013248;28;20042;-30
2023/05/18 03:26:10;;;;;;;2.03;1.40;;;;;;;;;;5013445;28;20133;-30
2023/05/18 03:28:38;;;;;;;2.05;1.50;;;17.90;73.30;;;;;;5013486;28;20487;-30
2023/05/18 03:31:05;;;;;;;2.75;1.25;;;17.60;73.50;;;;;;5013747;28;20473;-30
2023/05/18 03:33:32;;;;;;;2.33;1.40;;;;;;;;;;5013222;28;20453;-31
2023/05/18 03:36:01;;;;;;;2.63;1.17;;;18.90;73.90;;;;;;4995101;28;20418;-30
2023/05/18 03:38:28;;;;;;;1.52;1.13;;;18.30;73.90;;;;;;5013448;28;20060;-30
2023/05/18 03:40:55;;;;;;;1.55;1.20;;;17.60;73.50;;;;;;5013413;28;20133;-30
2023/05/18 03:43:24;;;;;;;2.13;1.25;;;;;;;;;;5012954;28;20073;-32
2023/05/18 03:45:52;;;;;;;2.72;1.33;;;16.80;72.90;;;;;;5013473;28;20049;-30
2023/05/18 03:48:19;;;;;;;1.70;1.20;;;17.40;73.20;;;;;;5012984;28;20125;-30
2023/05/18 03:50:47;;;;;;;2.25;1.10;;;;;;;;;;5013115;28;20073;-31
2023/05/18 03:53:17;;;;;;;2.53;1.33;;;17.30;73.10;;;;;;5013296;28;20532;-30
2023/05/18 03:55:44;;;;;;;2.08;1.00;;;;;;;;;;5013063;28;20053;-32
2023/05/18 03:58:11;;;;;;;1.30;0.93;;;17.70;73.60;;;;;;5013257;28;20136;-30
2023/05/18 04:00:38;;;;;;;2.72;1.45;;;17.70;73.60;;;;;;5013128;28;20050;-30
2023/05/18 04:03:06;;;;;;;1.30;1.17;;;18.00;71.30;;;;;;5012908;28;20049;-30
2023/05/18 04:05:33;;;;;;;1.88;1.40;;;;;;;;;;5012193;28;20094;-31
2023/05/18 04:08:00;;;;;;;2.28;1.20;;;16.30;72.50;;;;;;5011269;28;20121;-30
2023/05/18 04:10:27;;;;;;;2.45;1.40;;;17.10;53.90;;;;;;5013555;28;20456;-30
2023/05/18 04:12:53;;;;;;;1.50;1.13;;;18.60;73.90;;;;;;5012746;28;20426;-30
2023/05/18 04:15:20;;;;;;;1.90;1.25;;;18.10;73.20;;;;;;5012841;28;20447;-30
2023/05/18 04:17:48;;;;;;;2.67;1.33;;;17.80;53.80;;;;;;5012592;28;20479;-31
2023/05/18 04:20:17;;;;;;;2.10;1.10;;;18.40;54.10;;;;;;5012820;28;20563;-31
2023/05/18 04:22:48;;;;;;;2.67;1.48;;;17.70;53.70;;;;;;5012589;28;20100;-30
2023/05/18 04:25:14;;;;;;;1.65;1.10;;;17.20;73.00;;;;;;5013110;28;20076;-30
2023/05/18 04:27:42;;;;;;;2.60;1.10;;;17.30;55.20;;;;;;5012550;28;20120;-31
2023/05/18 04:30:10;;;;;;;3.65;1.40;;;17.70;54.40;;;;;;5012357;28;20058;-30
2023/05/18 04:32:37;;;;;;;1.88;1.20;;;;;;;;;;5012714;28;20080;-30
2023/05/18 04:35:05;;;;;;;1.50;1.20;;;18.00;73.30;;;;;;5012667;28;20572;-31
2023/05/18 04:37:33;;;;;;;2.75;1.42;;;17.90;63.60;;;;;;5012002;28;20486;-31
2023/05/18 04:40:01;;;;;;;2.78;1.50;;;17.60;61.70;;;;;;5012677;28;20060;-30
2023/05/18 04:42:28;;;;;;;2.80;1.20;;;17.90;73.10;;;;;;5011840;28;20074;-30
2023/05/18 04:44:54;;;;;;;2.15;1.10;;;17.50;72.90;;;;;;5012157;28;20049;-30
2023/05/18 04:47:22;;;;;;;2.53;1.10;;;19.00;73.50;;;;;;5012839;28;20051;-30
2023/05/18 04:49:51;;;;;;;2.50;1.25;;;18.30;73.10;;;;;;5012428;28;20053;-30
2023/05/18 04:52:18;;;;;;;2.08;1.30;;;18.30;73.40;;;;;;5012256;28;20057;-30
2023/05/18 04:54:46;;;;;;;1.98;1.30;;;19.20;73.50;;;;;;5012393;28;20076;-30
2023/05/18 04:57:13;;;;;;;2.05;1.10;;;18.70;73.10;;;;;;5011794;28;20128;-30
2023/05/18 04:59:40;;;;;;;1.70;1.30;;;17.80;72.70;;;;;;5012130;28;20150;-30
2023/05/18 05:02:07;;;;;;;2.25;1.30;;;19.20;63.90;;;;;;5012026;28;20422;-30
2023/05/18 05:04:33;;;;;;;1.15;0.90;;;18.60;73.10;;;;;;5011279;28;20056;-30
2023/05/18 05:07:00;;;;;;;2.25;1.20;;;18.20;72.90;;;;;;5008862;28;20709;-30
2023/05/18 05:09:27;;;;;;;2.50;1.38;;;18.80;60.80;;;;;;5010795;28;20121;-31
2023/05/18 05:11:55;;;;;;;2.63;1.13;;;18.50;53.20;;;;;;5011829;28;20046;-31
2023/05/18 05:14:21;;;;;;;1.60;1.10;;;18.40;72.20;;;;;;5009034;28;20109;-30
2023/05/18 05:16:48;;;;;;;2.70;1.25;;;18.30;72.10;;;;;;5011528;28;20060;-30
2023/05/18 05:19:15;;;;;;;2.05;1.20;;;18.20;57.60;;;;;;5010362;28;20479;-30
2023/05/18 05:21:42;;;;;;;2.38;1.10;;;18.50;72.10;;;;;;5011888;28;20133;-30
2023/05/18 05:24:09;;;;;;;2.58;1.10;;;;;;;;;;5010935;28;20141;-32
2023/05/18 05:26:36;;;;;;;1.50;1.08;;;18.80;72.30;;;;;;5011479;28;20061;-30
2023/05/18 05:29:04;;;;;;;2.70;1.30;;;18.90;71.90;;;;;;5011790;28;20130;-30
2023/05/18 05:31:33;;;;;;;1.42;1.00;;;;;;;;;;5011765;28;20100;-32
2023/05/18 05:34:00;;;;;;;1.60;1.00;;;18.90;67.70;;;;;;5008938;28;20466;-30
2023/05/18 05:36:27;;;;;;;1.38;1.00;;;;;;;;;;5008334;28;20057;-30
2023/05/18 05:38:54;;;;;;;2.10;1.00;;;;;;;;;;5011611;28;20056;-31
2023/05/18 05:41:21;;;;;;;1.23;1.00;;;19.40;72.20;;;;;;5008320;28;20074;-30
2023/05/18 05:43:48;;;;;;;1.33;1.02;;;19.00;56.80;;;;;;5010990;28;20077;-30
2023/05/18 05:46:17;;;;;;;1.27;1.00;;;19.00;72.00;;;;;;5011298;28;20056;-30
2023/05/18 05:48:44;;;;;;;1.45;1.13;;;;;;;;;;5011581;28;20041;-31
2023/05/18 05:51:11;;;;;;;1.40;1.10;;;18.10;70.90;;;;;;5011376;28;20046;-30
2023/05/18 05:53:37;;;;;;;2.17;1.15;;;18.80;71.20;;;;;;5012632;28;20468;-30
2023/05/18 05:56:06;;;;;;;2.30;1.20;;;19.00;55.20;;;;;;5015005;28;20136;-31
2023/05/18 05:58:33;;;;;;;2.20;1.10;;;18.30;71.30;;;;;;5014987;28;20074;-30
2023/05/18 06:01:00;;;;;;;2.10;1.10;;;18.80;71.60;;;;;;5014895;28;20121;-30
2023/05/18 06:03:30;;;;;;;2.13;1.00;;;19.00;62.00;;;;;;5014648;28;20511;-30
2023/05/18 06:05:56;;;;;;;3.13;1.10;;;19.10;57.30;;;;;;5014812;28;20503;-31
2023/05/18 06:08:23;;;;;;;1.40;1.10;;;18.80;71.50;;;;;;5014681;28;20125;-30
2023/05/18 06:10:51;;;;;;;1.40;1.00;;;;;;;;;;5014648;28;20060;-31
2023/05/18 06:13:17;;;;;;;1.33;0.95;;;18.90;71.20;;;;;;5011954;28;20052;-30
2023/05/18 06:15:44;;;;;;;2.42;1.20;;;19.20;71.70;;;;;;5014220;28;20419;-30
2023/05/18 06:18:11;;;;;;;1.60;1.10;;;;;;;;;;5014234;28;20060;-31
2023/05/18 06:20:39;;;;;;;2.00;1.02;;;19.20;71.40;;;;;;5011218;28;20118;-30
2023/05/18 06:23:06;;;;;;;1.88;1.02;;;19.30;71.40;;;;;;5006303;28;20046;-30
2023/05/18 06:25:34;;;;;;;1.85;1.17;;;;;;;;;;5013833;28;20053;-30
2023/05/18 06:28:00;;;;;;;2.22;1.20;;;18.70;71.60;;;;;;5014337;28;20084;-30
2023/05/18 06:30:27;;;;;;;1.20;0.98;;;18.90;58.90;;;;;;5014623;28;20073;-30
2023/05/18 06:32:54;;;;;;;2.33;1.05;;;18.80;71.50;;;;;;5014179;28;20482;-30
2023/05/18 06:35:22;;;;;;;1.83;1.10;;;;;;;;;;5013362;28;20132;-30
2023/05/18 06:37:50;;;;;;;2.88;1.17;;;17.90;71.00;;;;;;5013418;28;20076;-30
2023/05/18 06:40:17;;;;;;;2.30;1.30;;;19.00;71.90;;;;;;5013962;28;20419;-30
2023/05/18 06:42:43;;;;;;;1.83;1.00;;;18.90;61.60;;;;;;5011630;28;20132;-30
2023/05/18 06:45:11;;;;;;;2.85;1.23;;;19.20;71.70;;;;;;5014845;28;20132;-30
2023/05/18 06:47:38;;;;;;;2.50;1.17;;;18.90;69.20;;;;;;5014679;28;20046;-30
2023/05/18 06:50:05;;;;;;;1.75;1.02;;;19.10;72.00;;;;;;5014776;28;20464;-30
2023/05/18 06:52:32;;;;;;;1.67;1.05;;;18.70;71.40;;;;;;5013845;28;20041;-31
2023/05/18 06:55:01;;;;;;;1.20;1.00;;;18.50;71.30;;;;;;5014423;28;20128;-30
2023/05/18 06:57:28;;;;;;;3.38;1.13;;;;;;;;;;5014617;28;20411;-32
2023/05/18 06:59:55;;;;;;;2.53;0.95;;;19.00;71.50;;;;;;5014463;28;20053;-30
2023/05/18 07:02:22;;;;;;;2.53;1.00;;;18.90;71.40;;;;;;5007148;28;20046;-30
2023/05/18 07:04:48;;;;;;;2.13;1.20;;;18.70;63.20;;;;;;5010653;28;20077;-30
2023/05/18 07:07:15;;;;;;;1.70;1.10;;;19.30;71.80;;;;;;5010490;28;20128;-30
2023/05/18 07:09:44;;;;;;;1.55;0.98;;;;;;;;;;5009718;28;20061;-32
2023/05/18 07:12:12;;;;;;;8.98;2.10;;;19.20;61.60;;;;;;5011328;28;20096;-31
2023/05/18 07:14:39;;;;;;;2.85;1.20;;;19.60;71.40;;;;;;5013845;28;20054;-30
2023/05/18 07:17:07;;;;;;;2.80;0.90;;;18.40;70.70;;;;;;5014123;28;20132;-30
2023/05/18 07:19:34;;;;;;;2.17;1.00;;;;;;;;;;5011820;28;20042;-30
2023/05/18 07:22:02;;;;;;;3.17;1.10;;;;;;;;;;5013238;28;20050;-31
2023/05/18 07:24:29;;;;;;;1.92;0.90;;;19.90;71.80;;;;;;5013484;28;20056;-30
2023/05/18 07:26:56;;;;;;;2.10;0.98;;;;;;;;;;5013028;28;20511;-31
2023/05/18 07:29:24;;;;;;;1.77;1.20;;;20.30;66.70;;;;;;5012959;28;20509;-30
2023/05/18 07:31:51;;;;;;;1.88;1.10;;;19.60;58.20;;;;;;5013374;28;20129;-30
2023/05/18 07:34:18;;;;;;;2.03;1.00;;;19.90;70.50;;;;;;5012916;28;20045;-30
2023/05/18 07:36:44;;;;;;;2.65;1.02;;;20.80;71.20;;;;;;5009888;28;20124;-30
2023/05/18 07:39:17;;;;;;;2.05;1.20;;;19.80;58.80;;;;;;4990058;28;20125;-31
2023/05/18 07:41:44;;;;;;;1.60;1.10;;;20.20;56.60;;;;;;5010594;28;20561;-30
2023/05/18 07:44:11;;;;;;;2.05;1.10;;;20.50;71.10;;;;;;5012893;28;20128;-30
2023/05/18 07:46:39;;;;;;;1.80;1.10;;;20.00;68.90;;;;;;5010682;28;20054;-30
2023/05/18 07:49:06;;;;;;;1.98;1.15;;;20.70;69.20;;;;;;5007823;28;20097;-30
2023/05/18 07:51:33;;;;;;;1.35;1.00;;;20.80;70.20;;;;;;5008640;28;20129;-30
2023/05/18 07:54:00;;;;;;;3.17;0.90;;;;;;;;;;5009993;28;20407;-32
2023/05/18 07:56:26;;;;;;;2.00;1.05;;;20.90;69.60;;;;;;5008064;28;20133;-31
2023/05/18 07:58:53;;;;;;;2.17;0.88;;;21.30;70.60;;;;;;5013275;28;20129;-30
2023/05/18 08:01:25;;;;;;;0.90;0.77;;;;;;;;;;5012843;28;20046;-31
2023/05/18 08:03:54;;;;;;;2.20;1.02;;;20.60;52.90;;;;;;5003054;28;20046;-30
2023/05/18 08:06:20;;;;;;;1.27;1.00;;;21.30;65.70;;;;;;5012937;28;20453;-30
2023/05/18 08:08:47;;;;;;;1.63;0.90;;;21.10;70.10;;;;;;5013095;28;20077;-30
2023/05/18 08:11:14;;;;;;;1.67;0.90;;;;;;;;;;5012892;28;20108;-30
2023/05/18 08:13:41;;;;;;;2.25;1.00;;;21.80;70.00;;;;;;5012961;28;20453;-30
2023/05/18 08:16:08;;;;;;;1.27;0.90;;;21.30;69.60;;;;;;5006300;28;20056;-30
2023/05/18 08:18:35;;;;;;;1.75;0.98;;;20.80;61.70;;;;;;5012466;28;20125;-31
2023/05/18 08:21:03;;;;;;;1.33;0.90;;;21.40;69.30;;;;;;5012683;28;20130;-31
2023/05/18 08:23:29;;;;;;;2.25;1.20;;;21.20;68.70;;;;;;5012407;28;20053;-30
2023/05/18 08:25:58;;;;;;;3.03;1.00;;;;;;;;;;5012713;28;20053;-32
2023/05/18 08:28:25;;;;;;;1.13;0.90;;;20.90;69.10;;;;;;5013096;28;20050;-31
2023/05/18 08:30:52;;;;;;;1.25;0.98;;;20.90;68.60;;;;;;5012721;28;20053;-30
2023/05/18 08:33:19;;;;;;;1.13;0.98;;;21.40;55.70;;;;;;5012255;28;20558;-31
2023/05/18 08:35:46;;;;;;;1.77;0.90;;;21.40;69.20;;;;;;5012296;28;20104;-30
2023/05/18 08:38:14;;;;;;;1.17;0.90;;;21.30;68.30;;;;;;5011983;28;20058;-30
2023/05/18 08:40:43;;;;;;;1.50;1.10;;;21.50;68.40;;;;;;5012529;28;20046;-30
2023/05/18 08:43:12;;;;;;;1.50;0.90;;;21.50;61.80;;;;;;5012133;28;20192;-30
2023/05/18 08:45:41;;;;;;;1.92;1.13;;;21.50;50.40;;;;;;5012581;28;20057;-32
2023/05/18 08:48:08;;;;;;;1.60;1.00;;;21.50;64.90;;;;;;5012282;28;20054;-31
2023/05/18 08:50:34;;;;;;;2.35;0.90;;;21.30;67.60;;;;;;5011932;28;20459;-31
2023/05/18 08:53:02;;;;;;;1.30;1.00;;;;;;;;;;5000737;28;20058;-32
2023/05/18 08:55:33;;;;;;;2.17;1.10;;;21.80;69.00;;;;;;5002626;28;20124;-30
2023/05/18 08:58:00;;;;;;;1.45;1.00;;;21.20;50.30;;;;;;5010724;28;20484;-30
2023/05/18 09:00:27;;;;;;;2.05;1.08;;;22.60;68.80;;;;;;5010468;28;20085;-30
2023/05/18 09:02:54;;;;;;;2.00;1.00;;;;;;;;;;5008554;28;20430;-32
2023/05/18 09:05:21;;;;;;;0.88;0.80;;;20.80;61.00;;;;;;5011103;28;20073;-30
2023/05/18 09:07:48;;;;;;;2.40;1.30;;;;;;;;;;5008386;28;20066;-32
2023/05/18 09:10:15;;;;;;;1.20;1.00;;;21.70;67.60;;;;;;5011552;28;20046;-30
2023/05/18 09:12:45;;;;;;;1.85;0.93;;;21.70;68.30;;;;;;5009021;28;20128;-30
2023/05/18 09:15:12;;;;;;;1.73;1.10;;;21.80;67.60;;;;;;5011811;28;20092;-30
2023/05/18 09:17:39;;;;;;;1.17;1.00;;;22.90;67.90;;;;;;5011591;28;20052;-31
2023/05/18 09:20:07;;;;;;;1.83;1.10;;;21.80;68.50;;;;;;5011685;28;20054;-30
2023/05/18 09:22:34;;;;;;;2.03;1.20;;;21.80;67.60;;;;;;5008435;28;20057;-30
2023/05/18 09:25:01;;;;;;;1.70;1.00;;;21.50;67.80;;;;;;5010825;28;20125;-31
2023/05/18 09:27:28;;;;;;;2.13;1.10;;;21.60;55.70;;;;;;5010168;28;20049;-30
2023/05/18 09:29:57;;;;;;;1.48;1.00;;;21.70;50.00;;;;;;5015654;28;20128;-32
2023/05/18 09:32:24;;;;;;;1.38;1.00;;;;;;;;;;5014952;28;20041;-31
2023/05/18 09:34:51;;;;;;;1.52;1.10;;;21.50;59.60;;;;;;5015488;28;20050;-30
2023/05/18 09:37:18;;;;;;;1.80;1.08;;;22.60;68.20;;;;;;5014794;28;20064;-30
2023/05/18 09:39:45;;;;;;;1.13;0.90;;;20.90;55.70;;;;;;5014815;28;20131;-30
2023/05/18 09:42:12;;;;;;;1.70;1.10;;;23.10;52.70;;;;;;5008642;28;20046;-31
2023/05/18 09:44:39;;;;;;;1.92;1.15;;;;;;;;;;5006834;28;20133;-33
2023/05/18 09:47:09;;;;;;;1.60;0.98;;;21.80;50.00;;;;;;5002614;28;20136;-32
2023/05/18 09:49:37;;;;;;;1.20;1.05;;;21.60;67.50;;;;;;5015051;28;20061;-30
2023/05/18 09:52:07;;;;;;;2.75;1.05;;;21.70;50.00;;;;;;5013910;28;20461;-32
2023/05/18 09:54:35;;;;;;;1.25;0.90;;;21.80;50.00;;;;;;4996554;28;20419;-31
2023/05/18 09:57:03;;;;;;;1.70;0.80;;;21.60;67.50;;;;;;5015719;28;20086;-31
2023/05/18 09:59:30;;;;;;;1.23;0.93;;;22.20;54.80;;;;;;5004192;28;20499;-30
2023/05/18 10:01:59;;;;;;;1.83;1.00;;;22.00;64.20;;;;;;5007580;28;20052;-31
2023/05/18 10:04:37;;;;;;;2.38;1.20;;;20.80;66.40;;;;;;4997590;28;20137;-30
2023/05/18 10:07:12;;;;;;;1.98;1.17;;;21.70;49.90;;;;;;4996601;28;20074;-32
2023/05/18 10:09:39;;;;;;;1.40;0.85;;;22.10;67.80;;;;;;5007654;28;20049;-30
2023/05/18 10:12:11;;;;;;;1.25;0.98;;;21.60;64.10;;;;;;5000535;28;20153;-30
2023/05/18 10:14:38;;;;;;;2.80;1.17;;;22.10;67.90;;;;;;4995615;28;20058;-30
2023/05/18 10:17:05;;;;;;;1.67;1.10;;;22.00;65.30;;;;;;4978008;28;20144;-31
2023/05/18 10:19:32;;;;;;;1.90;1.00;;;;;;;;;;4995492;28;20056;-31
2023/05/18 10:22:00;;;;;;;1.92;1.10;;;21.40;65.80;;;;;;4995297;28;20129;-30
2023/05/18 10:24:27;;;;;;;2.42;1.00;;;22.00;67.70;;;;;;4995073;28;20455;-30
2023/05/18 10:26:54;;;;;;;1.27;0.98;;;;;;;;;;4998905;28;20132;-31
2023/05/18 10:29:21;;;;;;;1.50;0.90;;;21.50;67.50;;;;;;5014591;28;20042;-30
2023/05/18 10:31:47;;;;;;;1.92;1.00;;;22.60;68.10;;;;;;5014853;28;20124;-30
2023/05/18 10:34:14;;;;;;;4.45;1.30;;;21.60;67.50;;;;;;5014192;28;20060;-30
2023/05/18 10:36:41;;;;;;;2.13;1.20;;;21.20;59.70;;;;;;5013913;28;20129;-30
2023/05/18 10:39:09;;;;;;;1.50;1.00;;;21.90;63.70;;;;;;5013322;28;20687;-30
2023/05/18 10:41:36;;;;;;;1.50;0.93;;;22.10;67.80;;;;;;5008636;28;20046;-30
2023/05/18 10:44:03;;;;;;;2.03;1.10;;;21.80;53.40;;;;;;5004936;28;20054;-31
2023/05/18 10:46:30;;;;;;;2.65;1.08;;;21.30;67.30;;;;;;4998725;28;20057;-31
2023/05/18 10:48:57;;;;;;;2.45;1.20;;;20.90;67.10;;;;;;5006040;28;20128;-30
2023/05/18 10:51:24;;;;;;;2.78;1.20;;;21.60;63.60;;;;;;5013927;28;20135;-30
2023/05/18 10:53:51;;;;;;;1.67;0.93;;;21.50;68.40;;;;;;5013385;28;20128;-30
2023/05/18 10:56:19;;;;;;;1.83;1.10;;;21.60;60.70;;;;;;5013114;28;20145;-31
2023/05/18 10:58:46;;;;;;;1.45;1.10;;;21.30;67.30;;;;;;5013208;28;20073;-30
2023/05/18 11:01:13;;;;;;;1.50;1.00;;;;;;;;;;5013810;28;20056;-31
2023/05/18 11:03:40;;;;;;;1.55;0.90;;;21.60;65.40;;;;;;5013415;28;20045;-30
2023/05/18 11:06:09;;;;;;;1.25;0.90;;;21.50;50.00;;;;;;5014036;28;20104;-31
2023/05/18 11:08:42;;;;;;;1.73;0.90;;;21.30;50.00;;;;;;5013906;28;20522;-31
2023/05/18 11:11:09;;;;;;;2.28;1.00;;;21.20;67.60;;;;;;4996815;28;20050;-30
2023/05/18 11:13:38;;;;;;;2.78;1.15;;;20.30;65.50;;;;;;5013524;28;20129;-30
2023/05/18 11:16:06;;;;;;;2.22;1.27;;;21.40;50.20;;;;;;5013739;28;20132;-30
2023/05/18 11:18:40;;;;;;;4.18;1.30;;;21.50;68.70;;;;;;5013870;28;20060;-30
2023/05/18 11:21:31;;;;;;;2.35;1.30;;;21.30;68.70;;;;;;5012722;28;20124;-30
2023/05/18 11:24:20;;;;;;;4.15;1.45;;;21.10;68.00;;;;;;5006030;28;20054;-30
2023/05/18 11:26:48;;;;;;;3.38;1.40;;;21.40;69.00;;;;;;5007375;28;20126;-30
2023/05/18 11:29:21;;;;;;;2.95;1.45;;;20.50;51.00;;;;;;5008243;28;20061;-31
2023/05/18 11:31:49;;;;;;;3.08;1.50;;;21.30;50.30;;;;;;5005909;28;20513;-32
2023/05/18 11:34:35;;;;;;;2.80;1.45;;;21.10;68.40;;;;;;5012928;28;20133;-30
2023/05/18 11:37:02;;;;;;;2.05;1.20;;;21.40;68.60;;;;;;5013003;28;20610;-30
2023/05/18 11:39:29;;;;;;;2.90;1.33;;;22.30;58.40;;;;;;5013235;28;20132;-30
2023/05/18 11:41:59;;;;;;;2.42;1.20;;;21.10;68.50;;;;;;5012082;28;20050;-30
2023/05/18 11:44:27;;;;;;;2.85;1.27;;;21.30;50.50;;;;;;4998861;28;20049;-31
2023/05/18 11:46:56;;;;;;;2.85;1.50;;;22.10;51.80;;;;;;5013134;28;20132;-31
2023/05/18 11:49:23;;;;;;;5.30;1.65;;;21.40;50.60;;;;;;4997834;28;20138;-32
2023/05/18 11:52:06;;;;;;;2.90;1.40;;;21.70;68.40;;;;;;5012192;28;20046;-30
2023/05/18 11:54:35;;;;;;;3.58;1.50;;;21.70;58.70;;;;;;5012324;28;20107;-31
2023/05/18 11:57:02;;;;;;;3.03;1.27;;;;;;;;;;5012105;28;20052;-31
2023/05/18 11:59:34;;;;;;;2.20;1.20;;;21.20;68.60;;;;;;5012672;28;20065;-30
2023/05/18 12:02:02;;;;;;;3.05;1.40;;;20.70;68.20;;;;;;5012369;28;20578;-30
2023/05/18 12:04:30;;;;;;;2.50;1.58;;;21.10;68.30;;;;;;5009410;28;20458;-30
2023/05/18 12:06:57;;;;;;;2.00;1.30;;;21.30;68.40;;;;;;5012325;28;20088;-31
2023/05/18 12:09:24;;;;;;;2.10;1.40;;;22.00;54.50;;;;;;5012469;28;20054;-31
2023/05/18 12:11:51;;;;;;;2.00;1.20;;;21.50;69.40;;;;;;5012711;28;20403;-30
2023/05/18 12:14:18;;;;;;;2.80;1.30;;;21.30;50.80;;;;;;5012876;28;20473;-31
2023/05/18 12:16:47;;;;;;;2.33;1.40;;;21.50;69.00;;;;;;5012942;28;20128;-30
2023/05/18 12:19:14;;;;;;;1.65;1.20;;;;;;;;;;5013197;28;20222;-32
2023/05/18 12:21:40;;;;;;;2.55;1.42;;;21.30;68.40;;;;;;5012787;28;20053;-30
2023/05/18 12:24:08;;;;;;;2.22;1.23;;;20.80;69.10;;;;;;5012314;28;20565;-30
2023/05/18 12:26:35;;;;;;;4.13;1.50;;;21.00;68.40;;;;;;5012658;28;20052;-30
2023/05/18 12:29:01;;;;;;;2.08;1.30;;;21.00;68.50;;;;;;5013013;28;20058;-30
2023/05/18 12:31:28;;;;;;;1.73;1.25;;;21.40;57.30;;;;;;5012634;28;20133;-30
2023/05/18 12:33:56;;;;;;;2.10;1.30;;;21.60;69.10;;;;;;5011823;28;20061;-30
2023/05/18 12:36:24;;;;;;;3.33;1.58;;;21.80;69.50;;;;;;5012090;28;20513;-30
2023/05/18 12:38:51;;;;;;;1.48;1.20;;;22.00;69.80;;;;;;5012458;28;20116;-30
2023/05/18 12:41:26;;;;;;;4.85;1.35;;;21.30;51.00;;;;;;5012430;28;20136;-32
2023/05/18 12:43:53;;;;;;;2.05;1.20;;;;;;;;;;5012339;28;20057;-30
2023/05/18 12:46:21;;;;;;;4.00;1.30;;;22.30;69.60;;;;;;5011709;28;20049;-30
2023/05/18 12:48:51;;;;;;;2.47;1.33;;;21.80;69.30;;;;;;5002023;28;20065;-30
2023/05/18 12:51:19;;;;;;;2.08;1.23;;;21.10;69.40;;;;;;5008483;28;20041;-30
2023/05/18 12:53:46;;;;;;;2.47;1.10;;;20.10;68.20;;;;;;4997989;28;20054;-30
2023/05/18 12:56:13;;;;;;;3.38;1.30;;;21.20;69.00;;;;;;4992699;28;20165;-30
2023/05/18 12:58:40;;;;;;;2.83;1.40;;;21.40;68.70;;;;;;4993051;28;20047;-30
2023/05/18 13:01:07;;;;;;;2.60;1.20;;;;;;;;;;4996871;28;20074;-31
2023/05/18 13:03:34;;;;;;;3.35;1.42;;;20.90;68.50;;;;;;5009103;28;20136;-30
2023/05/18 13:06:05;;;;;;;1.95;1.17;;;21.20;51.10;;;;;;5012156;28;20050;-32
2023/05/18 13:08:34;;;;;;;1.55;1.00;;;20.80;69.40;;;;;;5011396;28;20559;-30